Otto, Texas
Current Conditions -  °F | °C
As of 3:51 PM on Monday 22 Dec 2014 (Local Time) from KCNW Reporting Station
Clear Clear  
Wind Chill: 70°   Ceiling: Unl
Heat Index: 70°   Visibility: 10mi
Dew Point: 37°   Wind: 16mph
Humidity: 31%   Direction: 310°NW
Pressure: 29.59"   Gusts: 20mph
Location:  31.45°N, 96.81°W
Report Text: KCNW 222151Z 31014G17KT 10SM SKC 21/03 A2959
Loading
Personal Weather Stations






























Interactive Weather Map New forecast layout! Learn more

10-Day Weather Forecast

Advertisements
Track Severe Weather on mobile